createdAt,value
2023-03-05T00:01:38.178Z,8.15
2023-03-05T00:04:07.503Z,10.25
2023-03-05T00:06:34.437Z,10.63
2023-03-05T00:09:04.763Z,9.80
2023-03-05T00:11:36.963Z,8.80
2023-03-05T00:14:04.747Z,6.95
2023-03-05T00:16:32.004Z,12.27
2023-03-05T00:19:00.042Z,8.55
2023-03-05T00:21:33.111Z,10.60
2023-03-05T00:24:04.365Z,10.73
2023-03-05T00:26:34.369Z,12.13
2023-03-05T00:29:01.040Z,7.75
2023-03-05T00:31:30.648Z,8.80
2023-03-05T00:34:02.895Z,11.30
2023-03-05T00:36:32.448Z,8.90
2023-03-05T00:38:59.524Z,10.70
2023-03-05T00:41:28.920Z,7.07
2023-03-05T00:43:55.817Z,12.27
2023-03-05T00:46:27.218Z,18.90
2023-03-05T00:48:54.867Z,8.77
2023-03-05T00:51:24.916Z,7.20
2023-03-05T00:53:51.984Z,8.90
2023-03-05T00:56:18.746Z,12.15
2023-03-05T00:58:50.066Z,13.30
2023-03-05T01:01:17.039Z,7.72
2023-03-05T01:03:45.833Z,8.20
2023-03-05T01:06:15.125Z,8.90
2023-03-05T01:08:43.125Z,7.97
2023-03-05T01:11:12.309Z,10.55
2023-03-05T01:13:41.562Z,9.23
2023-03-05T01:16:13.553Z,11.68
2023-03-05T01:18:42.722Z,6.38
2023-03-05T01:21:10.216Z,11.00
2023-03-05T01:23:37.397Z,9.18
2023-03-05T01:26:04.454Z,7.10
2023-03-05T01:28:33.307Z,6.63
2023-03-05T01:31:05.188Z,8.18
2023-03-05T01:33:31.821Z,6.43
2023-03-05T01:35:58.560Z,5.93
2023-03-05T01:38:25.253Z,9.10
2023-03-05T01:40:51.905Z,8.00
2023-03-05T01:43:27.914Z,7.70
2023-03-05T01:46:13.192Z,7.65
2023-03-05T01:48:44.147Z,9.80
2023-03-05T01:51:13.506Z,13.00
2023-03-05T01:53:40.394Z,7.30
2023-03-05T01:56:09.752Z,10.88
2023-03-05T01:58:37.487Z,9.65
2023-03-05T02:01:09.495Z,6.85
2023-03-05T02:03:37.566Z,8.95
2023-03-05T02:06:04.496Z,7.30
2023-03-05T02:08:31.176Z,9.85
2023-03-05T02:11:03.093Z,6.40
2023-03-05T02:13:35.666Z,10.70
2023-03-05T02:16:05.349Z,9.70
2023-03-05T02:18:37.046Z,6.13
2023-03-05T02:21:09.380Z,8.18
2023-03-05T02:23:40.147Z,4.85
2023-03-05T02:26:12.777Z,5.32
2023-03-05T02:28:53.683Z,4.97
2023-03-05T02:31:24.192Z,6.97
2023-03-05T02:33:56.449Z,6.22
2023-03-05T02:36:23.864Z,3.03
2023-03-05T02:38:50.714Z,4.40
2023-03-05T02:41:22.207Z,6.97
2023-03-05T02:43:53.529Z,6.13
2023-03-05T02:46:20.242Z,2.92
2023-03-05T02:48:46.925Z,3.08
2023-03-05T02:51:13.967Z,7.47
2023-03-05T02:53:45.346Z,6.30
2023-03-05T02:56:14.169Z,3.25
2023-03-05T02:58:40.854Z,4.43
2023-03-05T03:01:12.172Z,5.22
2023-03-05T03:03:39.012Z,5.43
2023-03-05T03:06:06.203Z,6.97
2023-03-05T03:08:32.848Z,4.07
2023-03-05T03:11:12.542Z,9.63
2023-03-05T03:13:39.609Z,7.20
2023-03-05T03:16:12.784Z,9.30
2023-03-05T03:18:39.730Z,10.23
2023-03-05T03:21:07.287Z,6.25
2023-03-05T03:23:34.792Z,7.07
2023-03-05T03:26:03.817Z,8.65
2023-03-05T03:28:32.857Z,7.43
2023-03-05T03:30:59.543Z,7.47
2023-03-05T03:33:26.216Z,7.50
2023-03-05T03:35:55.025Z,12.05
2023-03-05T03:38:24.181Z,8.20
2023-03-05T03:40:50.848Z,10.52
2023-03-05T03:43:17.496Z,9.27
2023-03-05T03:45:44.807Z,9.55
2023-03-05T03:48:11.943Z,8.10
2023-03-05T03:50:42.367Z,9.48
2023-03-05T03:53:12.833Z,10.73
2023-03-05T03:55:42.841Z,8.15
2023-03-05T03:58:10.018Z,13.13
2023-03-05T04:00:39.728Z,11.57
2023-03-05T04:03:06.995Z,10.43
2023-03-05T04:05:35.754Z,7.80
2023-03-05T04:08:03.371Z,11.70
2023-03-05T04:10:30.179Z,11.30
2023-03-05T04:12:56.815Z,9.02
2023-03-05T04:15:26.543Z,9.02
2023-03-05T04:17:57.930Z,11.68
2023-03-05T04:20:24.771Z,8.55
2023-03-05T04:22:53.693Z,7.95
2023-03-05T04:25:20.331Z,8.90
2023-03-05T04:27:46.969Z,11.77
2023-03-05T04:30:16.772Z,9.25
2023-03-05T04:32:43.398Z,7.03
2023-03-05T04:35:10.977Z,9.70
2023-03-05T04:37:37.795Z,7.57
2023-03-05T04:40:05.230Z,13.07
2023-03-05T04:42:31.990Z,7.32
2023-03-05T04:44:58.627Z,12.65
2023-03-05T04:47:27.478Z,7.57
2023-03-05T04:49:54.112Z,8.95
2023-03-05T04:52:20.906Z,7.65
2023-03-05T04:54:47.593Z,12.40
2023-03-05T04:57:16.611Z,9.20
2023-03-05T04:59:45.576Z,7.72
2023-03-05T05:02:14.774Z,9.00
2023-03-05T05:04:44.932Z,5.63
2023-03-05T05:07:12.827Z,9.00
2023-03-05T05:09:41.701Z,9.25
2023-03-05T05:12:10.869Z,7.28
2023-03-05T05:14:37.879Z,12.32
2023-03-05T05:17:05.141Z,6.82
2023-03-05T05:19:35.516Z,9.18
2023-03-05T05:22:02.551Z,10.35
2023-03-05T05:24:29.247Z,13.40
2023-03-05T05:27:00.420Z,8.88
2023-03-05T05:29:27.083Z,10.52
2023-03-05T05:31:54.187Z,11.05
2023-03-05T05:34:25.292Z,7.18
2023-03-05T05:36:56.864Z,12.00
2023-03-05T05:39:23.543Z,10.10
2023-03-05T05:41:52.083Z,11.73
2023-03-05T05:44:18.754Z,9.85
2023-03-05T05:46:48.167Z,13.07
2023-03-05T05:49:14.873Z,7.20
2023-03-05T05:51:41.528Z,8.90
2023-03-05T05:54:08.212Z,10.45
2023-03-05T05:56:37.342Z,10.85
2023-03-05T05:59:04.033Z,11.68
2023-03-05T06:01:33.027Z,7.35
2023-03-05T06:04:00.134Z,7.63
2023-03-05T06:06:27.978Z,9.50
2023-03-05T06:08:57.691Z,9.63
2023-03-05T06:11:27.416Z,12.45
2023-03-05T06:13:54.083Z,12.45
2023-03-05T06:16:24.941Z,7.55
2023-03-05T06:18:52.422Z,12.82
2023-03-05T06:21:20.849Z,11.02
2023-03-05T06:23:48.774Z,9.68
2023-03-05T06:26:18.302Z,15.85
2023-03-05T06:28:45.173Z,11.40
2023-03-05T06:31:18.408Z,13.15
2023-03-05T06:33:45.371Z,7.60
2023-03-05T06:36:15.421Z,11.35
2023-03-05T06:38:42.766Z,11.65
2023-03-05T06:41:11.966Z,12.13
2023-03-05T06:43:41.056Z,12.75
2023-03-05T06:46:13.781Z,14.55
2023-03-05T06:48:40.901Z,7.85
2023-03-05T06:51:14.525Z,12.63
2023-03-05T06:53:49.045Z,10.95
2023-03-05T06:56:21.866Z,10.43
2023-03-05T06:58:52.054Z,9.95
2023-03-05T07:01:23.622Z,10.65
2023-03-05T07:03:59.518Z,11.65
2023-03-05T07:06:32.332Z,11.38
2023-03-05T07:09:02.174Z,11.85
2023-03-05T07:11:29.536Z,15.13
2023-03-05T07:13:56.219Z,8.25
2023-03-05T07:16:26.397Z,15.80
2023-03-05T07:18:53.803Z,18.80
2023-03-05T07:21:26.366Z,9.13
2023-03-05T07:23:56.704Z,15.25
2023-03-05T07:26:30.812Z,11.50
2023-03-05T07:28:57.543Z,9.02
2023-03-05T07:31:31.169Z,7.38
2023-03-05T07:34:01.502Z,8.70
2023-03-05T07:36:29.995Z,8.75
2023-03-05T07:38:56.882Z,6.93
2023-03-05T07:41:23.805Z,10.20
2023-03-05T07:43:57.981Z,11.95
2023-03-05T07:46:31.039Z,6.60
2023-03-05T07:49:00.460Z,13.48
2023-03-05T07:51:28.621Z,9.20
2023-03-05T07:53:58.476Z,10.77
2023-03-05T07:56:35.347Z,10.57
2023-03-05T07:59:09.628Z,10.60
2023-03-05T08:01:36.596Z,12.20
2023-03-05T08:04:05.082Z,7.60
2023-03-05T08:06:32.240Z,10.30
2023-03-05T08:09:01.572Z,8.77
2023-03-05T08:11:30.882Z,7.75
2023-03-05T08:13:59.334Z,7.57
2023-03-05T08:16:28.780Z,6.63
2023-03-05T08:18:57.355Z,6.60
2023-03-05T08:21:29.942Z,9.63
2023-03-05T08:23:57.698Z,9.40
2023-03-05T08:26:28.606Z,10.75
2023-03-05T08:28:58.378Z,10.00
2023-03-05T08:31:30.083Z,8.30
2023-03-05T08:33:58.293Z,8.10
2023-03-05T08:36:25.076Z,6.35
2023-03-05T08:38:51.794Z,10.68
2023-03-05T08:41:19.386Z,8.07
2023-03-05T08:43:48.158Z,11.13
2023-03-05T08:46:16.017Z,9.95
2023-03-05T08:48:43.266Z,27.75
2023-03-05T08:51:26.977Z,9.20
2023-03-05T08:53:56.148Z,11.90
2023-03-05T08:56:22.812Z,10.85
2023-03-05T08:58:52.965Z,9.05
2023-03-05T09:01:23.811Z,11.70
2023-03-05T09:03:50.929Z,12.93
2023-03-05T09:06:17.666Z,10.85
2023-03-05T09:08:44.317Z,12.77
2023-03-05T09:11:13.729Z,11.25
2023-03-05T09:13:42.891Z,9.27
2023-03-05T09:16:19.296Z,16.67
2023-03-05T09:18:48.182Z,9.95
2023-03-05T09:21:18.033Z,12.65
2023-03-05T09:23:47.065Z,10.38
2023-03-05T09:26:19.185Z,11.68
2023-03-05T09:28:48.650Z,8.80
2023-03-05T09:31:15.920Z,11.88
2023-03-05T09:33:42.590Z,10.38
2023-03-05T09:36:24.968Z,11.00
2023-03-05T09:38:52.382Z,9.40
2023-03-05T09:41:25.100Z,12.80
2023-03-05T09:44:10.303Z,11.20
2023-03-05T09:46:56.802Z,12.77
2023-03-05T09:49:41.533Z,11.07
2023-03-05T09:52:18.106Z,15.23
2023-03-05T09:54:48.975Z,15.88
2023-03-05T09:57:22.395Z,12.77
2023-03-05T09:59:54.354Z,12.00
2023-03-05T10:02:29.180Z,14.88
2023-03-05T10:05:21.217Z,17.80
2023-03-05T10:08:02.184Z,14.18
2023-03-05T10:10:56.218Z,15.05
2023-03-05T10:13:25.021Z,16.25
2023-03-05T10:15:56.651Z,14.50
2023-03-05T10:18:48.766Z,13.70
2023-03-05T10:21:35.666Z,15.95
2023-03-05T10:24:24.019Z,16.67
2023-03-05T10:27:03.452Z,17.52
2023-03-05T10:29:46.590Z,18.25
2023-03-05T10:32:40.321Z,27.13
2023-03-05T10:35:21.229Z,17.73
2023-03-05T10:38:25.657Z,14.48
2023-03-05T10:40:55.276Z,15.10
2023-03-05T10:43:55.487Z,16.95
2023-03-05T10:46:27.871Z,18.63
2023-03-05T10:49:14.370Z,15.35
2023-03-05T10:51:51.770Z,15.88
2023-03-05T10:54:33.375Z,16.67
2023-03-05T10:57:21.318Z,12.18
2023-03-05T10:59:58.554Z,12.80
2023-03-05T11:02:27.946Z,13.38
2023-03-05T11:04:54.882Z,10.07
2023-03-05T11:07:23.777Z,10.35
2023-03-05T11:10:05.591Z,11.35
2023-03-05T11:12:39.500Z,20.65
2023-03-05T11:15:14.373Z,9.52
2023-03-05T11:17:48.994Z,11.00
2023-03-05T11:20:28.030Z,8.32
2023-03-05T11:23:16.310Z,14.30
2023-03-05T11:25:51.548Z,11.35
2023-03-05T11:28:33.645Z,18.35
2023-03-05T11:31:15.622Z,9.45
2023-03-05T11:34:04.406Z,12.30
2023-03-05T11:36:37.006Z,12.88
2023-03-05T11:39:06.508Z,15.00
2023-03-05T11:41:58.763Z,14.60
2023-03-05T11:44:28.011Z,14.93
2023-03-05T11:47:13.657Z,13.45
2023-03-05T11:49:45.046Z,10.45
2023-03-05T11:52:20.916Z,13.65
2023-03-05T11:54:53.666Z,9.57
2023-03-05T11:57:23.481Z,10.45
2023-03-05T11:59:52.538Z,9.90
2023-03-05T12:02:25.011Z,11.10
2023-03-05T12:04:52.316Z,10.55
2023-03-05T12:07:39.334Z,11.57
2023-03-05T12:10:06.890Z,10.00
2023-03-05T12:12:40.895Z,9.57
2023-03-05T12:15:29.274Z,9.45
2023-03-05T12:18:19.373Z,8.18
2023-03-05T12:20:49.039Z,8.65
2023-03-05T12:23:22.964Z,9.55
2023-03-05T12:25:51.223Z,14.80
2023-03-05T12:28:58.171Z,9.52
2023-03-05T12:31:39.563Z,7.93
2023-03-05T12:34:39.476Z,8.25
2023-03-05T12:37:33.175Z,9.38
2023-03-05T12:40:08.970Z,12.18
2023-03-05T12:42:35.600Z,8.13
2023-03-05T12:45:24.931Z,9.18
2023-03-05T12:47:57.637Z,8.93
2023-03-05T12:50:27.111Z,8.20
2023-03-05T12:52:58.035Z,9.02
2023-03-05T12:55:27.516Z,8.27
2023-03-05T12:58:21.685Z,7.72
2023-03-05T13:01:23.702Z,7.95
2023-03-05T13:04:10.734Z,6.15
2023-03-05T13:06:39.308Z,6.13
2023-03-05T13:09:34.917Z,7.43
2023-03-05T13:12:04.153Z,7.77
2023-03-05T13:14:48.442Z,8.57
2023-03-05T13:17:33.386Z,11.85
2023-03-05T13:20:02.375Z,14.60
2023-03-05T13:22:29.137Z,12.68
2023-03-05T13:25:25.018Z,12.32
2023-03-05T13:27:51.746Z,12.30
2023-03-05T13:30:23.919Z,13.13
2023-03-05T13:32:57.913Z,12.40
2023-03-05T13:35:26.837Z,11.98
2023-03-05T13:37:53.687Z,11.88
2023-03-05T13:40:25.185Z,11.02
2023-03-05T13:42:56.789Z,12.05
2023-03-05T13:45:34.950Z,11.00
2023-03-05T13:48:04.431Z,9.60
2023-03-05T13:50:36.792Z,10.35
2023-03-05T13:53:29.636Z,8.38
2023-03-05T13:56:10.180Z,10.30
2023-03-05T13:58:52.412Z,12.00
2023-03-05T14:01:28.418Z,11.77
2023-03-05T14:04:03.595Z,12.73
2023-03-05T14:06:40.914Z,12.15
2023-03-05T14:09:19.204Z,10.20
2023-03-05T14:11:56.256Z,11.50
2023-03-05T14:14:26.507Z,7.60
2023-03-05T14:16:56.052Z,11.75
2023-03-05T14:19:41.554Z,13.70
2023-03-05T14:22:32.399Z,9.43
2023-03-05T14:25:02.040Z,9.77
2023-03-05T14:27:34.447Z,12.07
2023-03-05T14:30:07.519Z,9.45
2023-03-05T14:32:39.345Z,10.40
2023-03-05T14:35:16.954Z,10.10
2023-03-05T14:37:49.038Z,10.93
2023-03-05T14:40:15.779Z,10.82
2023-03-05T14:42:54.438Z,10.52
2023-03-05T14:45:43.486Z,7.22
2023-03-05T14:48:13.446Z,8.68
2023-03-05T14:50:46.904Z,10.73
2023-03-05T14:53:20.073Z,21.08
2023-03-05T14:55:53.628Z,18.55
2023-03-05T14:58:25.929Z,97.32
2023-03-05T15:00:56.759Z,41.55
2023-03-05T15:03:24.872Z,13.80
2023-03-05T15:05:56.344Z,13.52
2023-03-05T15:08:28.404Z,18.55
2023-03-05T15:10:55.945Z,14.65
2023-03-05T15:13:25.147Z,8.70
2023-03-05T15:15:55.547Z,8.95
2023-03-05T15:18:22.841Z,9.38
2023-03-05T15:20:56.825Z,9.50
2023-03-05T15:23:34.061Z,12.00
2023-03-05T15:26:05.309Z,13.07
2023-03-05T15:28:41.929Z,9.93
2023-03-05T15:31:09.085Z,8.80
2023-03-05T15:33:35.924Z,9.07
2023-03-05T15:36:02.962Z,15.63
2023-03-05T15:38:29.609Z,11.07
2023-03-05T15:40:56.457Z,10.02
2023-03-05T15:43:25.739Z,12.85
2023-03-05T15:45:52.423Z,13.15
2023-03-05T15:48:26.284Z,16.02
2023-03-05T15:50:52.957Z,17.77
2023-03-05T15:53:21.449Z,13.30
2023-03-05T15:55:52.555Z,13.35
2023-03-05T15:58:19.250Z,15.13
2023-03-05T16:00:49.295Z,14.02
2023-03-05T16:03:18.302Z,15.82
2023-03-05T16:05:45.044Z,14.50
2023-03-05T16:08:11.931Z,13.82
2023-03-05T16:10:40.799Z,14.82
2023-03-05T16:13:21.294Z,17.67
2023-03-05T16:15:52.843Z,14.95
2023-03-05T16:18:20.262Z,17.63
2023-03-05T16:20:49.277Z,18.80
2023-03-05T16:23:16.028Z,17.52
2023-03-05T16:25:45.228Z,17.10
2023-03-05T16:28:11.945Z,16.73
2023-03-05T16:30:41.144Z,17.10
2023-03-05T16:33:08.093Z,14.63
2023-03-05T16:35:34.811Z,15.15
2023-03-05T16:38:02.303Z,17.40
2023-03-05T16:40:56.633Z,23.83
2023-03-05T16:43:22.106Z,15.25
2023-03-05T16:45:48.743Z,13.50
2023-03-05T16:48:17.940Z,12.90
2023-03-05T16:50:49.434Z,14.32
2023-03-05T16:53:18.700Z,15.10
2023-03-05T16:55:47.797Z,14.38
2023-03-05T16:58:19.154Z,14.32
2023-03-05T17:00:48.920Z,13.68
2023-03-05T17:03:15.590Z,14.20
2023-03-05T17:05:42.650Z,14.68
2023-03-05T17:08:11.539Z,13.85
2023-03-05T17:10:40.373Z,13.77
2023-03-05T17:13:07.082Z,13.68
2023-03-05T17:15:34.024Z,14.35
2023-03-05T17:18:03.108Z,16.60
2023-03-05T17:20:35.401Z,16.15
2023-03-05T17:23:04.530Z,15.70
2023-03-05T17:25:33.877Z,12.73
2023-03-05T17:28:00.557Z,17.13
2023-03-05T17:30:31.310Z,14.02
2023-03-05T17:32:57.974Z,11.77
2023-03-05T17:35:24.864Z,14.20
2023-03-05T17:37:56.280Z,12.63
2023-03-05T17:40:25.087Z,15.40
2023-03-05T17:42:53.957Z,13.85
2023-03-05T17:45:23.140Z,12.57
2023-03-05T17:47:49.857Z,16.58
2023-03-05T17:50:16.759Z,16.50
2023-03-05T17:52:45.990Z,14.43
2023-03-05T17:55:14.872Z,14.05
2023-03-05T17:57:47.940Z,13.75
2023-03-05T18:00:33.608Z,15.63
2023-03-05T18:03:03.686Z,14.95
2023-03-05T18:05:30.844Z,13.30
2023-03-05T18:07:58.891Z,14.95
2023-03-05T18:10:27.240Z,13.55
2023-03-05T18:12:56.648Z,14.98
2023-03-05T18:15:24.830Z,12.63
2023-03-05T18:17:52.168Z,13.00
2023-03-05T18:20:27.072Z,14.93
2023-03-05T18:22:54.060Z,13.02
2023-03-05T18:25:21.920Z,14.18
2023-03-05T18:27:48.614Z,12.70
2023-03-05T18:30:18.113Z,12.02
2023-03-05T18:32:47.503Z,10.38
2023-03-05T18:35:14.413Z,8.98
2023-03-05T18:37:41.158Z,12.55
2023-03-05T18:40:19.466Z,11.63
2023-03-05T18:42:48.701Z,12.43
2023-03-05T18:45:19.670Z,10.82
2023-03-05T18:47:46.904Z,10.73
2023-03-05T18:50:18.385Z,12.00
2023-03-05T18:52:45.552Z,15.07
2023-03-05T18:55:19.156Z,14.60
2023-03-05T18:57:46.058Z,13.60
2023-03-05T19:00:15.115Z,15.30
2023-03-05T19:02:41.755Z,12.30
2023-03-05T19:05:11.781Z,17.27
2023-03-05T19:07:43.754Z,13.77
2023-03-05T19:10:12.298Z,14.57
2023-03-05T19:12:49.724Z,14.18
2023-03-05T19:15:18.962Z,14.57
2023-03-05T19:17:49.361Z,13.20
2023-03-05T19:20:18.021Z,11.90
2023-03-05T19:22:50.687Z,13.63
2023-03-05T19:25:18.313Z,11.98
2023-03-05T19:27:47.474Z,10.68
2023-03-05T19:30:16.136Z,13.80
2023-03-05T19:32:42.916Z,11.20
2023-03-05T19:35:13.802Z,13.00
2023-03-05T19:37:40.449Z,9.55
2023-03-05T19:40:10.173Z,11.77
2023-03-05T19:42:38.952Z,12.63
2023-03-05T19:45:06.927Z,16.23
2023-03-05T19:47:33.614Z,10.68
2023-03-05T19:50:00.353Z,12.48
2023-03-05T19:52:27.603Z,15.00
2023-03-05T19:54:54.332Z,10.95
2023-03-05T19:57:23.376Z,14.82
2023-03-05T19:59:53.596Z,11.10
2023-03-05T20:02:22.605Z,13.90
2023-03-05T20:04:52.087Z,15.13
2023-03-05T20:07:18.852Z,13.38
2023-03-05T20:09:45.575Z,14.88
2023-03-05T20:12:12.308Z,16.48
2023-03-05T20:14:41.185Z,13.27
2023-03-05T20:17:07.830Z,19.33
2023-03-05T20:19:34.690Z,13.57
2023-03-05T20:22:01.334Z,14.18
2023-03-05T20:24:36.079Z,14.95
2023-03-05T20:27:02.968Z,18.77
2023-03-05T20:29:31.931Z,15.93
2023-03-05T20:31:58.709Z,19.00
2023-03-05T20:34:26.962Z,18.38
2023-03-05T20:36:53.673Z,17.20
2023-03-05T20:39:22.692Z,20.65
2023-03-05T20:41:51.533Z,24.00
2023-03-05T20:44:18.196Z,23.15
2023-03-05T20:47:02.380Z,21.48
2023-03-05T20:49:29.140Z,20.42
2023-03-05T20:51:55.794Z,22.00
2023-03-05T20:54:23.895Z,23.55
2023-03-05T20:56:50.660Z,21.25
2023-03-05T20:59:17.597Z,24.33
2023-03-05T21:01:46.666Z,21.08
2023-03-05T21:04:13.422Z,21.15
2023-03-05T21:06:42.446Z,22.60
2023-03-05T21:09:11.296Z,22.40
2023-03-05T21:11:38.038Z,27.52
2023-03-05T21:14:06.972Z,23.83
2023-03-05T21:16:33.714Z,24.23
2023-03-05T21:19:00.500Z,25.48
2023-03-05T21:21:30.189Z,26.90
2023-03-05T21:23:59.400Z,22.83
2023-03-05T21:26:26.062Z,26.17
2023-03-05T21:28:52.689Z,23.50
2023-03-05T21:31:21.896Z,24.08
2023-03-05T21:33:49.385Z,25.13
2023-03-05T21:36:19.225Z,25.45
2023-03-05T21:38:49.545Z,24.55
2023-03-05T21:41:18.049Z,23.70
2023-03-05T21:43:47.129Z,25.33
2023-03-05T21:46:16.479Z,24.05
2023-03-05T21:48:45.319Z,20.80
2023-03-05T21:51:13.763Z,22.90
2023-03-05T21:53:40.427Z,22.10
2023-03-05T21:56:16.795Z,20.45
2023-03-05T21:58:46.181Z,19.25
2023-03-05T22:01:14.774Z,19.90
2023-03-05T22:03:41.488Z,22.10
2023-03-05T22:06:12.663Z,21.15
2023-03-05T22:08:39.337Z,19.95
2023-03-05T22:11:14.010Z,18.23
2023-03-05T22:13:43.430Z,15.63
2023-03-05T22:16:14.277Z,13.48
2023-03-05T22:18:40.957Z,15.48
2023-03-05T22:21:21.458Z,13.27
2023-03-05T22:23:48.417Z,17.70
2023-03-05T22:26:15.104Z,14.88
2023-03-05T22:28:44.203Z,17.40
2023-03-05T22:31:19.020Z,16.02
2023-03-05T22:33:45.843Z,16.77
2023-03-05T22:36:14.593Z,14.23
2023-03-05T22:38:42.588Z,16.25
2023-03-05T22:41:11.328Z,15.75
2023-03-05T22:43:40.751Z,16.27
2023-03-05T22:46:15.017Z,18.55
2023-03-05T22:48:44.798Z,14.95
2023-03-05T22:51:15.507Z,15.15
2023-03-05T22:53:45.292Z,14.93
2023-03-05T22:56:14.897Z,13.90
2023-03-05T22:58:44.862Z,14.35
2023-03-05T23:01:20.040Z,15.93
2023-03-05T23:03:53.135Z,12.35
2023-03-05T23:06:19.820Z,14.13
2023-03-05T23:08:48.771Z,12.30
2023-03-05T23:11:22.712Z,14.60
2023-03-05T23:13:51.558Z,14.45
2023-03-05T23:16:20.333Z,14.77
2023-03-05T23:18:49.333Z,20.08
2023-03-05T23:21:16.104Z,15.18
2023-03-05T23:23:42.756Z,15.68
2023-03-05T23:26:12.550Z,17.00
2023-03-05T23:28:41.739Z,15.70
2023-03-05T23:31:08.442Z,19.52
2023-03-05T23:33:37.933Z,16.17
2023-03-05T23:36:04.825Z,14.90
2023-03-05T23:38:31.558Z,17.38
2023-03-05T23:41:03.262Z,15.90
2023-03-05T23:43:32.152Z,15.05
2023-03-05T23:46:01.818Z,16.95
2023-03-05T23:48:29.546Z,18.33
2023-03-05T23:51:00.842Z,17.00
2023-03-05T23:53:29.569Z,17.70
2023-03-05T23:55:58.938Z,16.65
2023-03-05T23:58:25.780Z,21.15
